Latest Weather Observations for Esperance Airport

IDW60801

Issued at 9:33 am WST Tuesday 27 September 2016 (issued every 30 minutes, with the page automatically refreshed every 10 minutes)

About weather observations | Map of weather stations | Latest weather observations for WA | Other Formats
Station Details ID: 009542 Name: ESPERANCE AERO Lat: -33.68 Lon: 121.83 Height: 142.0 m
Data from the previous 72 hours. | See also: Recent months at Esperance Airport
Date/Time
WST
Temp
°C
App
Temp
°C
Dew
Point
°C
Rel
Hum
%
Delta-T
°C
Wind Press
QNH
hPa
Press
MSL
hPa
Rain since
9am
mm
Dir  Spd
km/h
Gust
km/h
Spd
kts
Gust
kts
27/09:30am 16.3 12.7 10.6 69 3.1 WNW 20 28 11 15 1011.9 1011.8 0.0
27/09:00am 15.0 10.9 10.0 72 2.6 NW 22 30 12 16 1012.5 1012.4 0.0
27/08:30am 13.8 8.8 9.5 75 2.2 WNW 26 35 14 19 1012.9 1012.8 0.0
27/08:00am 12.7 8.7 9.2 79 1.8 NW 20 30 11 16 1013.0 1012.9 0.0
27/07:30am 11.8 7.7 8.8 82 1.5 WNW 20 28 11 15 1013.2 1013.1 0.0
27/07:00am 10.8 6.7 8.6 86 1.1 WNW 20 28 11 15 1013.6 1013.5 0.0
27/06:30am 9.7 5.7 8.1 90 0.8 NW 19 24 10 13 1013.7 1013.6 0.0
27/06:00am 8.8 4.6 7.4 91 0.7 NW 19 26 10 14 1013.8 1013.7 0.0
27/05:30am 8.9 4.5 7.5 91 0.7 NW 20 26 11 14 1013.6 1013.5 0.0
27/05:00am 8.6 4.3 7.2 91 0.7 NW 19 24 10 13 1013.8 1013.7 0.0
27/04:30am 8.4 4.8 6.9 90 0.7 NW 15 20 8 11 1013.7 1013.6 0.0
27/04:00am 8.8 4.9 7.1 89 0.8 WNW 17 22 9 12 1013.6 1013.5 0.0
27/03:30am 9.5 5.1 7.6 88 0.9 WNW 20 28 11 15 1013.7 1013.6 0.0
27/03:00am 9.6 5.4 7.4 86 1.1 NW 19 28 10 15 1013.8 1013.7 0.0
27/02:30am 10.4 6.1 8.0 85 1.2 NW 20 26 11 14 1013.7 1013.6 0.0
27/02:00am 10.1 6.1 8.4 89 0.8 WNW 19 24 10 13 1014.1 1014.1 0.0
27/01:30am 10.1 7.0 9.0 93 0.5 NW 15 20 8 11 1014.5 1014.5 0.0
27/01:00am 10.7 8.6 9.6 93 0.6 NW 11 15 6 8 1014.6 1014.6 0.0
27/12:36am 11.0 8.9 9.9 93 0.6 NNW 11 13 6 7 1014.7 1014.7 0.0
27/12:30am 11.0 9.3 9.9 93 0.6 NNW 9 13 5 7 1014.8 1014.8 0.0
27/12:00am 11.5 9.9 10.2 92 0.7 NW 9 9 5 5 1015.3 1015.3 0.0
 
Date/Time
WST
Temp
°C
App
Temp
°C
Dew
Point
°C
Rel
Hum
%
Delta-T
°C
Wind Press
QNH
hPa
Press
MSL
hPa
Rain since
9am
mm
Dir  Spd
km/h
Gust
km/h
Spd
kts
Gust
kts
26/11:53pm 11.0 9.3 9.8 92 0.6 WNW 9 9 5 5 1015.3 1015.3 0.0
26/11:46pm 11.0 9.2 9.6 91 0.7 WNW 9 11 5 6 1015.3 1015.3 0.0
26/11:30pm 11.8 10.6 10.4 91 0.7 W 7 9 4 5 1015.3 1015.3 0.0
26/11:00pm 12.5 11.4 10.7 89 0.9 WSW 7 9 4 5 1015.8 1015.8 0.0
26/10:30pm 12.5 10.9 10.2 86 1.2 SW 9 11 5 6 1015.9 1015.9 0.0
26/10:00pm 13.1 9.0 8.0 71 2.5 WSW 19 24 10 13 1015.8 1015.8 0.0
26/09:30pm 14.0 8.8 7.1 63 3.4 NW 24 30 13 16 1015.2 1015.2 0.0
26/09:00pm 13.6 9.3 6.9 64 3.3 NW 19 24 10 13 1015.2 1015.2 0.0
26/08:30pm 13.4 9.5 7.0 65 3.1 NW 17 22 9 12 1015.3 1015.3 0.0
26/08:00pm 13.0 8.7 6.8 66 3.0 NW 19 22 10 12 1015.6 1015.6 0.0
26/07:30pm 12.7 9.1 6.7 67 2.9 NNW 15 20 8 11 1015.2 1015.2 0.0
26/07:00pm 12.4 8.7 6.5 67 2.8 NW 15 19 8 10 1015.1 1015.1 0.0
26/06:30pm 12.3 8.7 6.6 68 2.7 WNW 15 17 8 9 1014.8 1014.8 0.0
26/06:00pm 13.5 9.5 6.6 63 3.3 WNW 17 19 9 10 1014.8 1014.8 0.0
26/05:30pm 15.8 11.3 6.8 55 4.4 W 20 28 11 15 1014.9 1014.9 0.0
26/05:00pm 16.7 10.7 7.1 53 4.8 WSW 28 37 15 20 1014.8 1014.8 0.0
26/04:30pm 16.9 12.3 6.4 50 5.2 WSW 20 30 11 16 1014.5 1014.5 0.0
26/04:00pm 18.3 11.6 5.8 44 6.2 WSW 30 37 16 20 1014.4 1014.4 0.0
26/03:30pm 18.4 11.4 4.2 39 6.8 W 30 39 16 21 1014.3 1014.3 0.0
26/03:04pm 18.2 11.6 4.4 40 6.6 W 28 46 15 25 1014.3 1014.3 0.0
26/03:00pm 18.2 11.7 4.7 41 6.5 W 28 37 15 20 1014.4 1014.4 0.0
26/02:30pm 18.1 11.5 4.3 40 6.6 W 28 39 15 21 1014.5 1014.5 0.0
26/02:00pm 18.2 11.1 5.4 43 6.3 W 32 43 17 23 1014.6 1014.6 0.0
26/01:30pm 17.8 10.4 5.1 43 6.2 W 33 44 18 24 1014.7 1014.7 0.0
26/01:00pm 17.4 10.6 5.0 44 6.0 WNW 30 44 16 24 1015.1 1015.1 0.0
26/12:30pm 17.5 11.0 4.8 43 6.1 NW 28 39 15 21 1015.6 1015.6 0.0
26/12:07pm 16.6 10.0 4.0 43 5.9 WNW 28 46 15 25 1016.1 1016.1 0.0
26/12:00pm 15.9 7.8 3.4 43 5.8 W 35 46 19 25 1016.3 1016.3 0.0
26/11:30am 16.1 8.7 5.1 48 5.3 WNW 33 46 18 25 1016.7 1016.6 0.0
26/11:00am 15.4 8.0 4.8 49 5.0 WNW 33 43 18 23 1017.1 1017.0 0.0
26/10:30am 14.9 7.6 4.3 49 4.9 WNW 32 43 17 23 1017.7 1017.6 0.0
26/10:00am 14.2 7.8 5.3 55 4.2 WNW 28 37 15 20 1018.1 1018.0 0.0
26/09:30am 12.9 6.0 4.6 57 3.8 WNW 30 37 16 20 1018.5 1018.4 0.0
26/09:00am 11.7 5.2 4.7 62 3.2 NW 28 37 15 20 1018.6 1018.5 2.0
26/08:30am 10.9 4.8 4.6 65 2.9 NW 26 32 14 17 1018.4 1018.3 2.0
26/08:00am 9.4 3.2 4.4 71 2.2 NW 26 35 14 19 1018.5 1018.4 2.0
26/07:30am 8.5 4.0 4.3 75 1.9 NNW 17 24 9 13 1018.3 1018.2 2.0
26/07:00am 7.0 2.4 3.8 80 1.4 NNW 17 22 9 12 1018.2 1018.1 2.0
26/06:30am 5.4 0.6 2.6 82 1.2 NNW 17 24 9 13 1018.1 1018.0 2.0
26/06:00am 4.5 -0.4 2.2 85 0.9 NNW 17 24 9 13 1017.9 1017.8 2.0
26/05:30am 4.0 -0.9 1.9 86 0.8 NNW 17 20 9 11 1017.9 1017.8 2.0
26/05:00am 4.2 -0.3 2.1 86 0.8 NNW 15 20 8 11 1017.7 1017.6 2.0
26/04:30am 4.0 -0.9 2.2 88 0.7 NNW 17 20 9 11 1017.5 1017.4 2.0
26/04:00am 3.5 -1.0 1.9 89 0.6 N 15 19 8 10 1017.5 1017.4 2.0
26/03:30am 3.4 -1.2 1.8 89 0.6 N 15 19 8 10 1017.5 1017.4 2.0
26/03:00am 3.4 -0.8 1.8 89 0.6 N 13 15 7 8 1017.7 1017.6 2.0
26/02:30am 3.3 -1.2 2.0 91 0.5 N 15 17 8 9 1017.9 1017.8 2.0
26/02:00am 2.7 -1.2 1.4 91 0.5 N 11 11 6 6 1018.0 1017.9 2.0
26/01:30am 2.9 -0.9 1.6 91 0.5 N 11 13 6 7 1018.1 1018.0 2.0
26/01:00am 2.8 -0.7 1.3 90 0.6 WSW 9 11 5 6 1018.3 1018.2 2.0
26/12:30am 3.0 -0.9 1.4 89 0.6 N 11 13 6 7 1018.3 1018.2 2.0
26/12:00am 4.5 1.2 2.2 85 0.9 N 9 9 5 5 1018.5 1018.4 2.0
 
Date/Time
WST
Temp
°C
App
Temp
°C
Dew
Point
°C
Rel
Hum
%
Delta-T
°C
Wind Press
QNH
hPa
Press
MSL
hPa
Rain since
9am
mm
Dir  Spd
km/h
Gust
km/h
Spd
kts
Gust
kts
25/11:30pm 4.8 1.9 2.7 86 0.9 NNW 7 9 4 5 1018.6 1018.5 2.0
25/11:00pm 4.7 1.9 1.9 82 1.1 NNW 6 7 3 4 1018.8 1018.7 2.0
25/10:30pm 5.0 2.3 2.7 85 0.9 NNW 6 7 3 4 1019.1 1019.0 2.0
25/10:00pm 4.8 2.1 2.8 87 0.8 WNW 6 9 3 5 1019.3 1019.2 2.0
25/09:30pm 5.7 2.6 3.7 87 0.8 WSW 9 11 5 6 1019.4 1019.3 2.0
25/09:00pm 5.8 3.2 4.0 88 0.8 W 7 9 4 5 1019.4 1019.3 2.0
25/08:30pm 5.7 3.0 3.9 88 0.8 W 7 9 4 5 1019.6 1019.5 2.0
25/08:00pm 6.1 3.4 3.9 86 0.9 W 7 11 4 6 1019.5 1019.4 2.0
25/07:30pm 7.4 4.2 4.9 84 1.1 WSW 11 13 6 7 1019.2 1019.1 2.0
25/07:00pm 8.4 4.2 5.7 83 1.2 SW 17 22 9 12 1019.0 1018.9 2.0
25/06:30pm 8.8 5.3 3.6 70 2.3 SW 11 15 6 8 1018.5 1018.4 1.6
25/06:00pm 8.7 4.3 2.9 67 2.5 SW 15 19 8 10 1018.1 1018.0 1.6
25/05:30pm 10.2 4.4 2.1 57 3.5 SW 22 32 12 17 1017.9 1017.8 1.6
25/05:00pm 11.5 5.1 3.0 56 3.7 SW 26 37 14 20 1017.5 1017.4 1.6
25/04:30pm 12.0 4.7 2.2 51 4.3 SW 30 39 16 21 1017.2 1017.1 1.6
25/04:00pm 12.3 4.3 1.9 49 4.5 SSW 33 46 18 25 1016.9 1016.8 1.6
25/03:30pm 12.5 4.3 2.7 51 4.3 SW 35 46 19 25 1016.7 1016.6 1.6
25/03:00pm 12.6 4.3 2.2 49 4.5 SW 35 44 19 24 1016.3 1016.3 1.6
25/02:30pm 13.0 4.7 2.3 48 4.7 SW 35 46 19 25 1016.0 1016.0 1.6
25/02:00pm 12.4 4.3 3.4 54 4.0 SW 35 50 19 27 1015.7 1015.7 1.6
25/01:30pm 12.1 4.5 3.9 57 3.7 SW 33 50 18 27 1015.5 1015.5 1.6
25/01:00pm 11.4 4.5 4.6 63 3.1 SW 30 46 16 25 1015.4 1015.4 1.6
25/12:30pm 11.0 4.1 6.6 74 2.1 SW 32 43 17 23 1015.3 1015.3 1.6
25/12:00pm 11.1 4.5 7.8 80 1.6 SW 32 46 17 25 1015.1 1015.1 1.4
25/11:58am 11.7 6.0 8.2 79 1.7 SW 28 46 15 25 1015.0 1015.0 1.4
25/11:51am 12.3 8.0 10.7 90 0.8 SW 24 32 13 17 1015.0 1015.0 1.4
25/11:30am 10.4 3.5 9.0 91 0.7 SSW 35 48 19 26 1014.9 1014.9 1.4
25/11:21am 10.7 4.4 9.0 89 0.8 SW 32 46 17 25 1014.8 1014.8 1.2
25/11:17am 11.0 5.4 8.9 87 1.0 SW 28 46 15 25 1014.7 1014.7 1.2
25/11:10am 11.7 5.9 9.4 86 1.2 SW 30 39 16 21 1014.6 1014.6 1.2
25/11:00am 11.4 6.5 10.0 91 0.7 SW 26 33 14 18 1014.6 1014.6 1.2
25/10:58am 11.3 6.0 9.9 91 0.7 SSW 28 35 15 19 1014.6 1014.6 1.2
25/10:53am 10.8 4.6 9.4 91 0.7 SSW 32 46 17 25 1014.6 1014.6 1.2
25/10:45am 11.2 5.7 9.3 88 1.0 SSW 28 46 15 25 1014.4 1014.4 1.0
25/10:31am 11.8 7.5 10.7 93 0.6 SW 24 33 13 18 1014.4 1014.4 1.0
25/10:30am 11.8 7.4 10.5 92 0.7 SW 24 33 13 18 1014.4 1014.4 1.0
25/10:14am 11.0 4.3 9.6 91 0.7 SW 35 48 19 26 1014.4 1014.4 1.0
25/10:08am 11.0 3.7 8.9 87 1.0 WSW 37 50 20 27 1014.2 1014.2 0.4
25/10:00am 13.2 6.2 8.3 72 2.5 W 35 50 19 27 1013.9 1013.8 0.0
25/09:30am 13.7 6.5 7.7 67 3.0 WSW 35 44 19 24 1013.9 1013.8 0.0
25/09:00am 13.2 6.8 8.5 73 2.4 W 32 41 17 22 1013.7 1013.6 0.0
25/08:30am 12.1 5.8 7.4 73 2.3 W 30 39 16 21 1013.7 1013.6 0.0
25/08:00am 10.7 5.3 6.5 75 2.0 WNW 24 32 13 17 1013.5 1013.4 0.0
25/07:30am 9.8 4.3 5.8 76 1.8 WNW 24 32 13 17 1013.4 1013.3 0.0
25/07:00am 8.6 2.9 4.8 77 1.7 WNW 24 35 13 19 1013.3 1013.2 0.0
25/06:30am 7.2 2.3 4.0 80 1.4 NW 19 24 10 13 1013.2 1013.1 0.0
25/06:00am 6.4 1.7 3.4 81 1.3 NNW 17 22 9 12 1013.1 1013.0 0.0
25/05:30am 5.6 1.7 3.4 86 0.9 NNW 13 17 7 9 1012.9 1012.8 0.0
25/05:00am 5.6 1.8 3.8 88 0.8 NNW 13 19 7 10 1012.7 1012.6 0.0
25/04:30am 5.6 1.5 4.2 91 0.6 N 15 19 8 10 1012.7 1012.6 0.0
25/04:00am 5.6 1.9 4.2 91 0.6 N 13 19 7 10 1012.6 1012.5 0.0
25/03:30am 6.1 2.1 4.7 91 0.6 N 15 19 8 10 1012.4 1012.3 0.0
25/03:00am 6.5 2.2 5.1 91 0.6 N 17 20 9 11 1012.4 1012.3 0.0
25/02:30am 6.1 1.7 4.6 90 0.7 N 17 20 9 11 1012.5 1012.4 0.0
25/02:00am 6.1 1.6 4.4 89 0.7 N 17 20 9 11 1012.7 1012.6 0.0
25/01:30am 6.2 1.8 4.5 89 0.7 N 17 22 9 12 1013.1 1013.0 0.0
25/01:00am 6.3 1.9 4.5 88 0.8 N 17 22 9 12 1013.3 1013.2 0.0
25/12:30am 6.2 1.7 4.4 88 0.8 N 17 20 9 11 1013.6 1013.5 0.0
25/12:00am 6.4 2.0 4.6 88 0.8 N 17 20 9 11 1013.8 1013.7 0.0
 
Date/Time
WST
Temp
°C
App
Temp
°C
Dew
Point
°C
Rel
Hum
%
Delta-T
°C
Wind Press
QNH
hPa
Press
MSL
hPa
Rain since
9am
mm
Dir  Spd
km/h
Gust
km/h
Spd
kts
Gust
kts
24/11:30pm 6.6 2.1 4.4 86 1.0 N 17 22 9 12 1014.0 1014.0 0.0
24/11:00pm 7.2 3.1 4.5 83 1.2 NNE 15 19 8 10 1014.0 1014.0 0.0
24/10:30pm 7.4 3.7 4.5 82 1.3 NNE 13 17 7 9 1014.0 1014.0 0.0
24/10:00pm 7.6 3.9 4.6 81 1.3 NNE 13 17 7 9 1014.2 1014.2 0.0
24/09:30pm 7.6 4.4 4.9 83 1.2 NNE 11 15 6 8 1014.3 1014.3 0.0
24/09:00pm 7.7 4.9 5.0 83 1.2 NE 9 11 5 6 1014.6 1014.6 0.0
24/08:30pm 8.4 5.9 4.6 77 1.7 NE 7 9 4 5 1014.7 1014.7 0.0
24/08:00pm 9.3 6.9 5.1 75 1.9 E 7 9 4 5 1014.7 1014.7 0.0
24/07:30pm 9.6 7.2 5.2 74 2.0 E 7 9 4 5 1014.4 1014.4 0.0
24/07:00pm 9.6 6.9 5.4 75 1.9 ESE 9 11 5 6 1014.1 1014.1 0.0
24/06:30pm 9.4 6.6 5.2 75 1.9 SE 9 13 5 7 1013.8 1013.7 0.0
24/06:00pm 10.2 7.4 5.2 71 2.3 SSE 9 11 5 6 1013.7 1013.6 0.0
24/05:30pm 11.5 8.3 5.2 65 2.9 SSE 11 17 6 9 1013.7 1013.6 0.0
24/05:00pm 12.6 9.0 4.8 59 3.6 SSE 13 19 7 10 1013.6 1013.5 0.0
24/04:30pm 13.3 8.9 5.0 57 3.9 S 17 22 9 12 1013.6 1013.5 0.0
24/04:00pm 14.2 10.4 5.6 56 4.1 S 15 22 8 12 1013.5 1013.4 0.0
24/03:30pm 15.1 11.8 4.5 49 5.0 SW 11 19 6 10 1013.4 1013.3 0.0
24/03:00pm 14.5 10.6 3.6 48 5.0 SSW 13 22 7 12 1013.6 1013.5 0.0
24/02:30pm 15.3 11.6 4.7 49 5.0 SSW 13 24 7 13 1013.6 1013.5 0.0
24/02:00pm 15.0 10.5 2.2 42 5.7 WSW 15 22 8 12 1013.7 1013.6 0.0
24/01:30pm 13.8 8.9 1.8 44 5.3 WSW 17 28 9 15 1014.1 1014.1 0.0
24/01:00pm 13.8 8.3 2.1 45 5.2 WSW 20 30 11 16 1014.4 1014.4 0.0
24/12:30pm 14.3 8.7 3.2 47 5.0 W 22 32 12 17 1014.9 1014.9 0.0
24/12:00pm 13.9 8.6 2.8 47 5.0 W 20 30 11 16 1015.5 1015.5 0.0
24/11:30am 13.6 7.6 3.4 50 4.6 W 24 33 13 18 1015.7 1015.7 0.0
24/11:00am 13.3 7.8 3.9 53 4.3 WNW 22 30 12 16 1016.0 1016.0 0.0
24/10:30am 12.7 7.2 4.2 56 3.9 W 22 32 12 17 1016.1 1016.1 0.0
24/10:00am 12.2 6.1 4.7 60 3.4 W 26 32 14 17 1016.6 1016.5 0.0

Other Formats:

Comma delimited format used in spreadsheet applications
http://www.bom.gov.au/fwo/IDW60801/IDW60801.95638.axf

JavaScript Object Notation format (JSON) in row-major order
http://www.bom.gov.au/fwo/IDW60801/IDW60801.95638.json